createdAt,value
2022-09-26T00:00:13.826Z,11.10
2022-09-26T00:04:22.746Z,11.20
2022-09-26T00:08:20.646Z,11.10
2022-09-26T00:12:17.658Z,11.10
2022-09-26T00:16:15.594Z,11.10
2022-09-26T00:20:12.729Z,11.10
2022-09-26T00:24:10.046Z,11.10
2022-09-26T00:28:06.965Z,11.00
2022-09-26T00:32:03.911Z,11.00
2022-09-26T00:36:01.190Z,10.90
2022-09-26T00:39:58.154Z,10.90
2022-09-26T00:43:57.561Z,10.80
2022-09-26T00:48:04.208Z,10.80
2022-09-26T00:52:20.609Z,10.70
2022-09-26T00:56:26.985Z,10.60
2022-09-26T01:00:24.103Z,10.60
2022-09-26T01:04:26.043Z,10.60
2022-09-26T01:08:33.464Z,10.60
2022-09-26T01:12:30.631Z,10.50
2022-09-26T01:16:31.813Z,10.50
2022-09-26T01:20:45.997Z,10.40
2022-09-26T01:25:07.519Z,10.50
2022-09-26T01:29:41.862Z,10.50
2022-09-26T01:34:04.355Z,10.40
2022-09-26T01:38:35.856Z,10.40
2022-09-26T01:42:52.872Z,10.40
2022-09-26T01:46:59.779Z,10.30
2022-09-26T01:51:23.738Z,10.30
2022-09-26T01:55:35.932Z,10.30
2022-09-26T01:59:41.639Z,10.20
2022-09-26T02:03:46.264Z,10.20
2022-09-26T02:07:53.614Z,10.20
2022-09-26T02:11:59.353Z,10.20
2022-09-26T02:16:07.355Z,10.20
2022-09-26T02:20:27.006Z,10.20
2022-09-26T02:24:24.746Z,10.10
2022-09-26T02:28:22.270Z,10.10
2022-09-26T02:32:27.136Z,10.10
2022-09-26T02:36:24.525Z,10.10
2022-09-26T02:40:33.377Z,10.20
2022-09-26T02:45:25.899Z,10.10
2022-09-26T02:49:58.896Z,10.20
2022-09-26T02:54:39.138Z,10.10
2022-09-26T02:59:09.239Z,10.10
2022-09-26T03:03:19.960Z,10.20
2022-09-26T03:07:30.779Z,10.10
2022-09-26T03:11:30.612Z,10.10
2022-09-26T03:15:31.753Z,10.10
2022-09-26T03:20:15.031Z,10.10
2022-09-26T03:24:13.787Z,10.10
2022-09-26T03:28:12.373Z,10.00
2022-09-26T03:32:10.322Z,10.00
2022-09-26T03:36:09.620Z,9.90
2022-09-26T03:40:12.332Z,9.90
2022-09-26T03:44:32.524Z,9.90
2022-09-26T03:48:52.680Z,9.90
2022-09-26T03:52:49.729Z,9.90
2022-09-26T03:56:46.700Z,9.90
2022-09-26T04:00:43.741Z,9.90
2022-09-26T04:04:40.830Z,9.90
2022-09-26T04:08:42.390Z,9.90
2022-09-26T04:12:41.097Z,9.80
2022-09-26T04:16:38.512Z,9.80
2022-09-26T04:21:10.273Z,9.80
2022-09-26T04:25:10.249Z,9.80
2022-09-26T04:29:11.318Z,9.80
2022-09-26T04:33:26.807Z,9.70
2022-09-26T04:37:37.161Z,9.80
2022-09-26T04:41:34.696Z,9.80
2022-09-26T04:45:31.876Z,9.80
2022-09-26T04:49:29.934Z,9.80
2022-09-26T04:53:27.563Z,9.80
2022-09-26T04:57:33.074Z,9.70
2022-09-26T05:01:30.170Z,9.60
2022-09-26T05:05:31.377Z,9.50
2022-09-26T05:09:30.767Z,9.40
2022-09-26T05:13:38.935Z,9.30
2022-09-26T05:17:37.711Z,9.30
2022-09-26T05:21:37.096Z,9.40
2022-09-26T05:26:00.050Z,9.40
2022-09-26T05:29:56.997Z,9.50
2022-09-26T05:33:58.396Z,9.50
2022-09-26T05:38:03.480Z,9.50
2022-09-26T05:42:04.667Z,9.50
2022-09-26T05:46:06.043Z,9.60
2022-09-26T05:50:11.320Z,9.60
2022-09-26T05:54:10.427Z,9.70
2022-09-26T05:58:09.560Z,9.80
2022-09-26T06:02:42.143Z,9.90
2022-09-26T06:06:45.839Z,10.00
2022-09-26T06:10:47.013Z,10.10
2022-09-26T06:14:47.875Z,10.20
2022-09-26T06:18:47.018Z,10.20
2022-09-26T06:22:44.116Z,10.20
2022-09-26T06:26:42.439Z,10.20
2022-09-26T06:30:40.149Z,10.30
2022-09-26T06:34:42.547Z,10.20
2022-09-26T06:39:10.396Z,10.20
2022-09-26T06:43:07.585Z,10.40
2022-09-26T06:47:23.568Z,10.40
2022-09-26T06:51:31.559Z,10.50
2022-09-26T06:55:28.515Z,10.70
2022-09-26T06:59:25.934Z,10.80
2022-09-26T07:03:31.753Z,11.10
2022-09-26T07:07:53.358Z,11.60
2022-09-26T07:12:14.310Z,11.90
2022-09-26T07:16:13.336Z,12.10
2022-09-26T07:20:29.790Z,12.00
2022-09-26T07:24:46.329Z,12.20
2022-09-26T07:28:44.729Z,12.20
2022-09-26T07:32:47.898Z,12.10
2022-09-26T07:36:59.971Z,12.00
2022-09-26T07:41:00.989Z,11.80
2022-09-26T07:45:29.707Z,11.80
2022-09-26T07:49:53.627Z,11.90
2022-09-26T07:54:06.985Z,12.00
2022-09-26T07:58:24.166Z,12.20
2022-09-26T08:02:42.918Z,12.30
2022-09-26T08:06:42.237Z,12.20
2022-09-26T08:10:39.406Z,12.50
2022-09-26T08:14:55.976Z,12.80
2022-09-26T08:19:06.006Z,12.40
2022-09-26T08:23:03.497Z,12.00
2022-09-26T08:27:01.119Z,11.90
2022-09-26T08:31:03.543Z,12.30
2022-09-26T08:35:01.022Z,12.70
2022-09-26T08:39:05.621Z,13.10
2022-09-26T08:43:41.457Z,13.40
2022-09-26T08:48:21.806Z,13.90
2022-09-26T08:52:56.365Z,14.30
2022-09-26T08:57:00.407Z,15.00
2022-09-26T09:01:10.047Z,15.40
2022-09-26T09:05:33.062Z,15.10
2022-09-26T09:09:31.256Z,15.00
2022-09-26T09:14:09.920Z,15.00
2022-09-26T09:18:57.911Z,14.60
2022-09-26T09:23:39.091Z,15.20
2022-09-26T09:27:54.791Z,15.70
2022-09-26T09:31:56.701Z,15.90
2022-09-26T09:36:34.674Z,15.50
2022-09-26T09:41:18.341Z,15.30
2022-09-26T09:45:41.892Z,15.10
2022-09-26T09:49:38.875Z,15.20
2022-09-26T09:53:49.756Z,16.40
2022-09-26T09:58:21.896Z,16.70
2022-09-26T10:02:31.239Z,16.80
2022-09-26T10:06:44.701Z,17.80
2022-09-26T10:11:30.919Z,17.70
2022-09-26T10:15:27.918Z,17.70
2022-09-26T10:19:44.237Z,18.20
2022-09-26T10:23:49.014Z,17.50
2022-09-26T10:28:31.184Z,17.10
2022-09-26T10:32:31.040Z,17.20
2022-09-26T10:36:48.302Z,17.40
2022-09-26T10:40:55.392Z,17.70
2022-09-26T10:44:57.730Z,18.30
2022-09-26T10:49:17.170Z,19.30
2022-09-26T10:53:40.229Z,19.60
2022-09-26T10:57:53.404Z,19.10
2022-09-26T11:01:57.361Z,18.60
2022-09-26T11:05:57.303Z,18.90
2022-09-26T11:10:14.592Z,20.00
2022-09-26T11:14:32.776Z,21.50
2022-09-26T11:19:15.547Z,20.80
2022-09-26T11:23:55.376Z,20.00
2022-09-26T11:28:12.721Z,18.40
2022-09-26T11:32:41.251Z,17.30
2022-09-26T11:37:50.869Z,17.60
2022-09-26T11:42:15.259Z,17.80
2022-09-26T11:46:53.777Z,19.10
2022-09-26T11:51:56.323Z,20.40
2022-09-26T11:56:27.111Z,21.10
2022-09-26T12:00:50.519Z,21.30
2022-09-26T12:05:27.429Z,21.00
2022-09-26T12:10:07.707Z,20.00
2022-09-26T12:14:41.030Z,18.50
2022-09-26T12:19:16.471Z,18.30
2022-09-26T12:23:43.801Z,17.40
2022-09-26T12:27:50.559Z,17.10
2022-09-26T12:32:05.559Z,16.90
2022-09-26T12:36:48.715Z,16.60
2022-09-26T12:41:14.406Z,16.80
2022-09-26T12:45:31.936Z,17.40
2022-09-26T12:50:29.288Z,18.10
2022-09-26T12:54:48.422Z,17.70
2022-09-26T12:59:38.827Z,17.00
2022-09-26T13:04:12.588Z,16.80
2022-09-26T13:08:19.289Z,17.20
2022-09-26T13:12:58.955Z,18.70
2022-09-26T13:17:13.557Z,19.00
2022-09-26T13:21:19.251Z,18.50
2022-09-26T13:25:21.837Z,18.70
2022-09-26T13:29:27.128Z,19.30
2022-09-26T13:33:52.706Z,19.50
2022-09-26T13:38:02.125Z,20.10
2022-09-26T13:42:23.213Z,20.60
2022-09-26T13:47:01.455Z,20.90
2022-09-26T13:51:18.483Z,21.20
2022-09-26T13:55:21.867Z,21.40
2022-09-26T13:59:18.916Z,21.30
2022-09-26T14:03:16.779Z,21.40
2022-09-26T14:07:57.357Z,21.30
2022-09-26T14:12:20.376Z,21.30
2022-09-26T14:16:34.716Z,20.90
2022-09-26T14:20:49.529Z,21.10
2022-09-26T14:24:53.812Z,21.30
2022-09-26T14:28:56.649Z,20.30
2022-09-26T14:33:10.328Z,20.10
2022-09-26T14:37:23.649Z,20.00
2022-09-26T14:41:24.336Z,19.60
2022-09-26T14:45:45.439Z,19.20
2022-09-26T14:49:43.335Z,18.10
2022-09-26T14:53:54.068Z,17.30
2022-09-26T14:57:51.310Z,17.20
2022-09-26T15:01:48.273Z,17.10
2022-09-26T15:05:47.684Z,16.80
2022-09-26T15:10:26.680Z,16.80
2022-09-26T15:14:41.169Z,16.80
2022-09-26T15:18:41.470Z,16.60
2022-09-26T15:22:40.855Z,16.40
2022-09-26T15:26:37.838Z,16.40
2022-09-26T15:30:40.873Z,16.30
2022-09-26T15:34:39.976Z,16.20
2022-09-26T15:38:37.561Z,16.00
2022-09-26T15:42:53.117Z,15.70
2022-09-26T15:46:51.245Z,15.50
2022-09-26T15:51:01.573Z,15.40
2022-09-26T15:54:59.015Z,15.40
2022-09-26T15:59:07.425Z,15.40
2022-09-26T16:03:31.058Z,15.80
2022-09-26T16:07:31.840Z,16.00
2022-09-26T16:11:29.222Z,16.20
2022-09-26T16:15:31.226Z,16.40
2022-09-26T16:19:35.796Z,16.10
2022-09-26T16:23:56.653Z,15.50
2022-09-26T16:28:19.095Z,14.90
2022-09-26T16:32:21.185Z,14.60
2022-09-26T16:36:24.176Z,14.40
2022-09-26T16:40:21.329Z,14.40
2022-09-26T16:44:30.293Z,14.30
2022-09-26T16:48:50.044Z,14.10
2022-09-26T16:52:47.006Z,13.90
2022-09-26T16:56:46.466Z,13.60
2022-09-26T17:01:02.243Z,13.40
2022-09-26T17:04:59.260Z,13.20
2022-09-26T17:09:03.149Z,13.10
2022-09-26T17:13:02.698Z,13.10
2022-09-26T17:17:00.239Z,13.10
2022-09-26T17:20:59.257Z,13.10
2022-09-26T17:24:56.329Z,13.00
2022-09-26T17:28:54.439Z,13.00
2022-09-26T17:32:54.464Z,13.00
2022-09-26T17:36:53.892Z,12.90
2022-09-26T17:40:50.985Z,12.90
2022-09-26T17:44:48.336Z,12.80
2022-09-26T17:48:45.280Z,12.60
2022-09-26T17:52:42.269Z,12.20
2022-09-26T17:56:40.047Z,12.00
2022-09-26T18:00:40.405Z,11.80
2022-09-26T18:04:37.438Z,11.60
2022-09-26T18:08:38.914Z,11.40
2022-09-26T18:12:36.193Z,11.40
2022-09-26T18:16:33.210Z,11.30
2022-09-26T18:20:38.673Z,11.20
2022-09-26T18:24:35.670Z,11.20
2022-09-26T18:28:32.883Z,11.10
2022-09-26T18:32:39.034Z,11.10
2022-09-26T18:36:35.979Z,11.00
2022-09-26T18:40:40.207Z,10.90
2022-09-26T18:44:37.699Z,11.00
2022-09-26T18:48:36.475Z,11.00
2022-09-26T18:52:33.459Z,11.00
2022-09-26T18:56:49.052Z,10.90
2022-09-26T19:00:46.980Z,10.90
2022-09-26T19:04:43.933Z,10.80
2022-09-26T19:08:47.502Z,10.80
2022-09-26T19:12:44.458Z,10.80
2022-09-26T19:16:46.103Z,10.80
2022-09-26T19:20:43.229Z,10.80
2022-09-26T19:24:55.488Z,10.80
2022-09-26T19:28:55.168Z,10.90
2022-09-26T19:32:56.952Z,10.90
2022-09-26T19:36:54.029Z,10.90
2022-09-26T19:40:54.412Z,10.90
2022-09-26T19:44:51.573Z,10.90
2022-09-26T19:48:48.696Z,10.90
2022-09-26T19:52:46.344Z,10.90
2022-09-26T19:56:44.167Z,11.00
2022-09-26T20:00:44.758Z,11.00
2022-09-26T20:04:42.540Z,11.10
2022-09-26T20:08:39.523Z,11.00
2022-09-26T20:12:36.474Z,11.00
2022-09-26T20:16:38.641Z,11.10
2022-09-26T20:20:38.200Z,11.10
2022-09-26T20:24:39.794Z,11.10
2022-09-26T20:28:37.501Z,11.00
2022-09-26T20:32:36.354Z,11.10
2022-09-26T20:36:35.737Z,11.00
2022-09-26T20:40:34.910Z,11.00
2022-09-26T20:44:33.804Z,10.90
2022-09-26T20:48:34.132Z,10.90
2022-09-26T20:52:31.094Z,10.90
2022-09-26T20:56:28.880Z,10.90
2022-09-26T21:00:25.879Z,10.80
2022-09-26T21:04:31.995Z,10.80
2022-09-26T21:08:30.769Z,10.80
2022-09-26T21:12:27.694Z,10.80
2022-09-26T21:16:25.159Z,10.80
2022-09-26T21:20:32.100Z,10.80
2022-09-26T21:24:58.345Z,10.70
2022-09-26T21:28:56.442Z,10.70
2022-09-26T21:33:00.237Z,10.70
2022-09-26T21:36:59.096Z,10.70
2022-09-26T21:41:00.303Z,10.70
2022-09-26T21:45:03.804Z,10.80
2022-09-26T21:49:00.771Z,10.80
2022-09-26T21:53:05.987Z,10.80
2022-09-26T21:57:18.506Z,10.80
2022-09-26T22:01:15.793Z,10.80
2022-09-26T22:05:13.210Z,10.80
2022-09-26T22:09:10.378Z,10.70
2022-09-26T22:13:07.506Z,10.70
2022-09-26T22:17:04.500Z,10.70
2022-09-26T22:21:04.823Z,10.70
2022-09-26T22:25:04.250Z,10.70
2022-09-26T22:29:01.224Z,10.70
2022-09-26T22:32:58.181Z,10.70
2022-09-26T22:36:55.269Z,10.70
2022-09-26T22:40:57.583Z,10.80
2022-09-26T22:44:54.578Z,10.70
2022-09-26T22:48:51.561Z,10.60
2022-09-26T22:52:48.593Z,10.60
2022-09-26T22:56:45.568Z,10.70
2022-09-26T23:00:42.808Z,10.60
2022-09-26T23:04:48.786Z,10.60
2022-09-26T23:08:47.231Z,10.60
2022-09-26T23:12:44.228Z,10.60
2022-09-26T23:16:41.269Z,10.70
2022-09-26T23:20:43.244Z,10.70
2022-09-26T23:24:40.216Z,10.80
2022-09-26T23:28:37.197Z,10.80
2022-09-26T23:32:34.145Z,10.90
2022-09-26T23:36:31.342Z,10.90
2022-09-26T23:40:29.698Z,10.90
2022-09-26T23:44:27.751Z,10.90
2022-09-26T23:48:24.788Z,10.80
2022-09-26T23:52:21.757Z,10.80
2022-09-26T23:56:18.999Z,10.80
